createdAt,value
2019-06-07T00:00:48.995Z,85.94
2019-06-07T00:03:55.402Z,85.48
2019-06-07T00:07:01.289Z,85.01
2019-06-07T00:10:07.108Z,84.92
2019-06-07T00:13:17.078Z,84.95
2019-06-07T00:16:23.239Z,84.84
2019-06-07T00:19:28.243Z,85.25
2019-06-07T00:22:35.032Z,85.40
2019-06-07T00:25:41.030Z,85.44
2019-06-07T00:28:46.991Z,85.31
2019-06-07T00:31:53.305Z,85.26
2019-06-07T00:34:59.475Z,85.09
2019-06-07T00:38:05.651Z,84.87
2019-06-07T00:41:12.521Z,85.74
2019-06-07T00:44:22.661Z,85.28
2019-06-07T00:47:26.483Z,85.51
2019-06-07T00:50:32.646Z,84.71
2019-06-07T00:53:38.607Z,83.83
2019-06-07T00:56:44.886Z,83.85
2019-06-07T00:59:50.722Z,83.81
2019-06-07T01:02:56.749Z,84.06
2019-06-07T01:06:03.606Z,83.61
2019-06-07T01:09:09.560Z,83.58
2019-06-07T01:12:19.052Z,84.32
2019-06-07T01:15:28.825Z,84.82
2019-06-07T01:18:39.094Z,85.37
2019-06-07T01:21:38.601Z,86.30
2019-06-07T01:24:45.063Z,86.30
2019-06-07T01:27:51.474Z,86.40
2019-06-07T01:30:57.631Z,86.65
2019-06-07T01:34:03.756Z,86.47
2019-06-07T01:37:10.107Z,86.35
2019-06-07T01:40:17.157Z,86.56
2019-06-07T01:43:28.183Z,86.84
2019-06-07T01:46:31.582Z,86.71
2019-06-07T01:49:37.509Z,85.89
2019-06-07T01:52:44.617Z,86.04
2019-06-07T01:55:50.752Z,86.29
2019-06-07T01:58:57.111Z,86.70
2019-06-07T02:02:03.619Z,87.31
2019-06-07T02:05:09.636Z,87.95
2019-06-07T02:08:15.743Z,88.08
2019-06-07T02:11:22.446Z,88.51
2019-06-07T02:14:32.963Z,88.16
2019-06-07T02:17:37.829Z,87.81
2019-06-07T02:20:44.125Z,87.33
2019-06-07T02:23:50.175Z,86.83
2019-06-07T02:26:56.469Z,86.72
2019-06-07T02:30:35.079Z,87.04
2019-06-07T02:33:10.614Z,87.01
2019-06-07T02:36:16.715Z,87.41
2019-06-07T02:39:25.481Z,87.01
2019-06-07T02:42:39.010Z,87.50
2019-06-07T02:45:43.532Z,87.67
2019-06-07T02:48:46.610Z,87.36
2019-06-07T02:51:52.560Z,86.60
2019-06-07T02:54:58.381Z,86.18
2019-06-07T02:58:04.579Z,85.83
2019-06-07T03:01:10.560Z,86.17
2019-06-07T03:04:17.194Z,86.21
2019-06-07T03:07:23.508Z,86.17
2019-06-07T03:10:31.405Z,86.23
2019-06-07T03:13:37.753Z,85.80
2019-06-07T03:16:51.090Z,86.31
2019-06-07T03:19:58.428Z,85.91
2019-06-07T03:22:29.295Z,85.81
2019-06-07T03:25:01.435Z,85.40
2019-06-07T03:27:40.617Z,85.25
2019-06-07T03:30:35.341Z,84.79
2019-06-07T03:32:45.720Z,84.99
2019-06-07T03:35:08.389Z,85.11
2019-06-07T03:37:42.614Z,84.74
2019-06-07T03:40:11.227Z,83.62
2019-06-07T03:42:41.612Z,82.57
2019-06-07T03:45:12.052Z,81.65
2019-06-07T03:47:43.285Z,80.94
2019-06-07T03:50:13.726Z,79.88
2019-06-07T03:52:44.061Z,78.67
2019-06-07T03:55:14.455Z,77.42
2019-06-07T03:58:30.202Z,76.20
2019-06-07T04:00:17.846Z,72.92
2019-06-07T04:02:48.215Z,72.42
2019-06-07T04:05:18.528Z,72.42
2019-06-07T04:07:48.900Z,71.59
2019-06-07T04:10:19.272Z,71.28
2019-06-07T04:12:49.624Z,70.95
2019-06-07T04:15:19.998Z,70.78
2019-06-07T04:18:01.720Z,70.80
2019-06-07T04:20:22.558Z,70.57
2019-06-07T04:22:52.912Z,69.87
2019-06-07T04:25:23.395Z,70.01
2019-06-07T04:27:53.707Z,69.94
2019-06-07T04:30:41.826Z,69.60
2019-06-07T04:33:13.680Z,69.37
2019-06-07T04:35:45.325Z,69.10
2019-06-07T04:38:16.581Z,68.91
2019-06-07T04:40:47.199Z,68.62
2019-06-07T04:43:17.641Z,67.53
2019-06-07T04:45:51.550Z,65.97
2019-06-07T04:48:22.567Z,65.33
2019-06-07T04:50:54.389Z,65.14
2019-06-07T04:53:24.755Z,65.27
2019-06-07T04:55:55.226Z,64.34
2019-06-07T04:58:25.608Z,63.69
2019-06-07T05:01:02.611Z,62.94
2019-06-07T05:03:30.557Z,61.80
2019-06-07T05:06:00.079Z,60.51
2019-06-07T05:08:33.204Z,60.56
2019-06-07T05:11:02.487Z,61.04
2019-06-07T05:13:37.765Z,62.11
2019-06-07T05:16:04.921Z,62.89
2019-06-07T05:18:36.333Z,63.52
2019-06-07T05:21:07.457Z,63.97
2019-06-07T05:26:09.966Z,66.18
2019-06-07T05:28:42.821Z,66.77
2019-06-07T05:31:12.849Z,66.73
2019-06-07T05:33:43.612Z,67.06
2019-06-07T05:36:14.152Z,67.39
2019-06-07T05:38:45.167Z,66.88
2019-06-07T05:41:15.705Z,66.90
2019-06-07T05:44:00.222Z,66.96
2019-06-07T05:46:18.156Z,66.69
2019-06-07T05:48:48.928Z,66.37
2019-06-07T05:51:19.655Z,66.07
2019-06-07T05:53:50.145Z,66.02
2019-06-07T05:56:20.578Z,67.38
2019-06-07T05:58:50.952Z,67.69
2019-06-07T06:03:53.467Z,67.73
2019-06-07T06:06:23.829Z,67.19
2019-06-07T06:09:12.801Z,67.14
2019-06-07T06:11:43.147Z,67.36
2019-06-07T06:14:07.415Z,66.82
2019-06-07T06:16:31.721Z,65.80
2019-06-07T06:19:02.174Z,63.21
2019-06-07T06:21:32.608Z,58.41
2019-06-07T06:24:02.986Z,53.11
2019-06-07T06:26:33.456Z,48.59
2019-06-07T06:29:03.852Z,43.88
2019-06-07T06:31:34.197Z,40.09
2019-06-07T06:34:04.583Z,38.59
2019-06-07T06:36:35.263Z,36.99
2019-06-07T06:39:06.922Z,36.48
2019-06-07T06:41:50.755Z,36.67
2019-06-07T06:44:09.480Z,38.10
2019-06-07T06:46:46.165Z,39.01
2019-06-07T06:49:12.049Z,39.70
2019-06-07T06:51:46.990Z,39.32
2019-06-07T06:54:14.451Z,39.35
2019-06-07T06:56:45.653Z,40.04
2019-06-07T07:01:50.964Z,43.44
2019-06-07T07:04:21.208Z,45.02
2019-06-07T07:06:53.711Z,45.93
2019-06-07T07:09:24.076Z,46.65
2019-06-07T07:12:10.214Z,47.08
2019-06-07T07:14:26.709Z,47.73
2019-06-07T07:16:57.749Z,47.92
2019-06-07T07:19:30.282Z,48.40
2019-06-07T07:22:01.051Z,48.40
2019-06-07T07:24:31.558Z,44.95
2019-06-07T07:27:01.939Z,42.76
2019-06-07T07:29:32.477Z,40.86
2019-06-07T07:32:02.829Z,38.17
2019-06-07T07:34:36.921Z,33.87
2019-06-07T07:37:05.553Z,31.78
2019-06-07T07:39:35.985Z,31.47
2019-06-07T07:42:20.127Z,32.44
2019-06-07T07:44:39.107Z,32.95
2019-06-07T07:47:09.795Z,32.55
2019-06-07T07:49:40.265Z,30.59
2019-06-07T07:52:10.699Z,29.14
2019-06-07T07:54:41.135Z,26.78
2019-06-07T07:57:11.496Z,24.27
2019-06-07T07:59:57.242Z,22.23
2019-06-07T08:02:14.028Z,20.87
2019-06-07T08:07:16.539Z,22.11
2019-06-07T08:09:48.077Z,20.87
2019-06-07T08:12:19.327Z,19.03
2019-06-07T08:14:51.134Z,17.33
2019-06-07T08:17:21.869Z,15.97
2019-06-07T08:19:54.314Z,15.67
2019-06-07T08:22:24.386Z,16.46
2019-06-07T08:24:55.964Z,18.38
2019-06-07T08:27:27.174Z,19.12
2019-06-07T08:30:16.074Z,20.58
2019-06-07T08:32:29.653Z,21.90
2019-06-07T08:35:05.941Z,22.91
2019-06-07T08:38:14.103Z,22.33
2019-06-07T08:40:04.621Z,20.59
2019-06-07T08:42:37.256Z,19.23
2019-06-07T08:45:07.306Z,17.22
2019-06-07T08:47:37.754Z,15.75
2019-06-07T08:50:08.566Z,14.20
2019-06-07T08:52:39.208Z,14.24
2019-06-07T08:55:09.947Z,14.12
2019-06-07T08:57:40.391Z,16.22
2019-06-07T09:00:42.343Z,17.08
2019-06-07T09:02:43.434Z,17.59
2019-06-07T09:05:14.707Z,18.28
2019-06-07T09:07:45.069Z,19.91
2019-06-07T09:10:15.871Z,21.61
2019-06-07T09:12:46.400Z,22.44
2019-06-07T09:15:23.515Z,24.22
2019-06-07T09:18:34.898Z,24.99
2019-06-07T09:20:36.378Z,26.46
2019-06-07T09:22:59.094Z,28.36
2019-06-07T09:25:26.210Z,30.42
2019-06-07T09:28:00.668Z,32.38
2019-06-07T09:30:47.205Z,34.08
2019-06-07T09:33:17.581Z,34.86
2019-06-07T09:35:49.220Z,35.96
2019-06-07T09:38:25.685Z,35.83
2019-06-07T09:40:51.758Z,34.59
2019-06-07T09:45:54.275Z,34.92
2019-06-07T09:49:09.123Z,34.52
2019-06-07T09:51:02.149Z,33.93
2019-06-07T09:53:29.237Z,33.78
2019-06-07T09:56:03.529Z,33.48
2019-06-07T09:58:51.026Z,30.67
2019-06-07T10:01:09.912Z,29.93
2019-06-07T10:03:35.974Z,27.95
2019-06-07T10:06:12.383Z,26.24
2019-06-07T10:09:57.022Z,23.91
2019-06-07T10:11:12.537Z,22.65
2019-06-07T10:13:42.918Z,21.01
2019-06-07T10:16:13.321Z,20.36
2019-06-07T10:18:43.705Z,18.25
2019-06-07T10:21:14.997Z,15.83
2019-06-07T10:23:45.784Z,14.63
2019-06-07T10:26:16.148Z,13.76
2019-06-07T10:28:46.680Z,12.00
2019-06-07T10:31:17.038Z,11.34
2019-06-07T10:33:47.385Z,11.01
2019-06-07T10:36:17.775Z,11.03
2019-06-07T10:38:48.814Z,12.49
2019-06-07T10:41:19.595Z,11.74
2019-06-07T10:43:49.989Z,10.69
2019-06-07T10:46:20.420Z,10.12
2019-06-07T10:48:50.854Z,9.37
2019-06-07T10:51:21.231Z,8.70
2019-06-07T10:53:51.587Z,8.29
2019-06-07T10:56:21.974Z,9.88
2019-06-07T10:58:52.336Z,11.83
2019-06-07T11:01:22.673Z,12.01
2019-06-07T11:03:53.282Z,13.55
2019-06-07T11:06:23.622Z,15.43
2019-06-07T11:08:53.969Z,15.08
2019-06-07T11:11:24.394Z,13.91
2019-06-07T11:13:54.746Z,13.00
2019-06-07T11:16:25.158Z,12.81
2019-06-07T11:18:55.546Z,11.37
2019-06-07T11:21:25.891Z,11.49
2019-06-07T11:23:56.270Z,11.94
2019-06-07T11:26:26.773Z,12.97
2019-06-07T11:28:57.209Z,14.54
2019-06-07T11:31:27.685Z,16.93
2019-06-07T11:33:58.028Z,18.18
2019-06-07T11:36:28.704Z,20.57
2019-06-07T11:38:59.478Z,22.58
2019-06-07T11:41:29.941Z,24.35
2019-06-07T11:44:00.302Z,24.82
2019-06-07T11:46:30.772Z,24.60
2019-06-07T11:49:01.271Z,25.69
2019-06-07T11:51:31.589Z,26.90
2019-06-07T11:54:02.118Z,27.58
2019-06-07T11:56:32.517Z,27.87
2019-06-07T11:59:02.933Z,28.86
2019-06-07T12:01:33.327Z,29.25
2019-06-07T12:04:03.735Z,29.46
2019-06-07T12:06:34.096Z,29.31
2019-06-07T12:09:05.899Z,29.48
2019-06-07T12:11:36.378Z,30.16
2019-06-07T12:14:06.971Z,30.47
2019-06-07T12:16:37.484Z,30.27
2019-06-07T12:19:09.542Z,29.81
2019-06-07T12:21:40.501Z,30.88
2019-06-07T12:24:12.152Z,30.29
2019-06-07T12:26:42.580Z,31.43
2019-06-07T12:29:13.176Z,31.86
2019-06-07T12:31:43.607Z,33.02
2019-06-07T12:34:15.446Z,32.99
2019-06-07T12:36:46.078Z,31.77
2019-06-07T12:39:16.463Z,32.25
2019-06-07T12:41:46.832Z,33.42
2019-06-07T12:44:18.522Z,33.35
2019-06-07T12:46:49.445Z,33.54
2019-06-07T12:49:21.099Z,33.30
2019-06-07T12:51:51.639Z,34.18
2019-06-07T12:54:22.016Z,33.34
2019-06-07T12:56:52.578Z,34.79
2019-06-07T12:59:24.198Z,36.26
2019-06-07T13:01:54.783Z,36.39
2019-06-07T13:04:25.260Z,36.24
2019-06-07T13:06:55.628Z,36.03
2019-06-07T13:09:26.073Z,35.88
2019-06-07T13:11:56.504Z,36.10
2019-06-07T13:14:28.447Z,36.08
2019-06-07T13:16:59.304Z,36.04
2019-06-07T13:19:29.798Z,36.04
2019-06-07T13:22:00.189Z,36.31
2019-06-07T13:24:30.660Z,36.28
2019-06-07T13:27:01.052Z,36.84
2019-06-07T13:29:32.263Z,36.92
2019-06-07T13:32:02.974Z,36.87
2019-06-07T13:34:33.331Z,36.90
2019-06-07T13:37:03.754Z,36.85
2019-06-07T13:39:34.156Z,36.94
2019-06-07T13:42:04.543Z,37.53
2019-06-07T13:44:34.970Z,38.31
2019-06-07T13:47:05.429Z,38.43
2019-06-07T13:49:35.784Z,38.93
2019-06-07T13:52:06.174Z,38.75
2019-06-07T13:54:36.604Z,38.24
2019-06-07T13:57:06.928Z,38.48
2019-06-07T13:59:37.289Z,38.49
2019-06-07T14:02:07.645Z,38.65
2019-06-07T14:04:38.491Z,38.90
2019-06-07T14:07:09.274Z,38.47
2019-06-07T14:09:39.732Z,38.91
2019-06-07T14:12:10.181Z,39.20
2019-06-07T14:14:40.594Z,39.27
2019-06-07T14:17:10.920Z,39.00
2019-06-07T14:19:43.584Z,39.72
2019-06-07T14:22:13.958Z,39.51
2019-06-07T14:24:44.323Z,39.74
2019-06-07T14:27:14.737Z,40.13
2019-06-07T14:29:45.055Z,40.14
2019-06-07T14:32:15.431Z,40.14
2019-06-07T14:34:45.815Z,40.13
2019-06-07T14:37:16.166Z,40.12
2019-06-07T14:39:46.557Z,40.24
2019-06-07T14:42:16.960Z,40.54
2019-06-07T14:44:47.426Z,40.48
2019-06-07T14:47:17.790Z,40.19
2019-06-07T14:49:48.919Z,38.99
2019-06-07T14:52:19.651Z,39.78
2019-06-07T14:54:50.058Z,39.73
2019-06-07T14:57:21.286Z,40.14
2019-06-07T14:59:51.737Z,40.53
2019-06-07T15:02:22.128Z,40.66
2019-06-07T15:04:52.480Z,40.66
2019-06-07T15:07:22.889Z,40.84
2019-06-07T15:09:53.242Z,40.53
2019-06-07T15:12:25.331Z,40.58
2019-06-07T15:14:55.673Z,41.25
2019-06-07T15:17:26.490Z,41.17
2019-06-07T15:19:57.529Z,40.92
2019-06-07T15:22:28.044Z,41.10
2019-06-07T15:24:58.384Z,41.27
2019-06-07T15:27:29.148Z,41.47
2019-06-07T15:29:59.627Z,41.30
2019-06-07T15:32:30.612Z,41.34
2019-06-07T15:35:01.512Z,41.70
2019-06-07T15:37:32.563Z,41.35
2019-06-07T15:40:03.105Z,41.31
2019-06-07T15:42:47.668Z,41.79
2019-06-07T15:45:05.882Z,42.33
2019-06-07T15:47:36.250Z,42.53
2019-06-07T15:50:07.265Z,42.07
2019-06-07T15:52:38.280Z,42.04
2019-06-07T15:55:10.248Z,42.25
2019-06-07T15:57:42.254Z,42.95
2019-06-07T16:00:14.852Z,42.97
2019-06-07T16:02:45.241Z,43.51
2019-06-07T16:05:16.236Z,44.00
2019-06-07T16:07:46.684Z,43.88
2019-06-07T16:10:17.228Z,43.72
2019-06-07T16:12:59.684Z,43.84
2019-06-07T16:15:19.916Z,43.74
2019-06-07T16:17:50.311Z,43.69
2019-06-07T16:20:20.781Z,44.10
2019-06-07T16:22:51.141Z,43.58
2019-06-07T16:25:21.520Z,43.58
2019-06-07T16:27:51.891Z,43.29
2019-06-07T16:30:22.354Z,43.59
2019-06-07T16:32:53.486Z,43.56
2019-06-07T16:35:23.976Z,43.95
2019-06-07T16:37:54.324Z,43.93
2019-06-07T16:40:24.658Z,44.51
2019-06-07T16:42:55.031Z,44.31
2019-06-07T16:45:25.460Z,44.33
2019-06-07T16:47:55.806Z,44.16
2019-06-07T16:50:26.231Z,44.52
2019-06-07T16:52:56.653Z,44.95
2019-06-07T16:55:27.017Z,44.84
2019-06-07T16:57:57.414Z,44.79
2019-06-07T17:00:27.984Z,44.94
2019-06-07T17:02:58.436Z,44.83
2019-06-07T17:05:28.828Z,44.86
2019-06-07T17:07:59.243Z,45.29
2019-06-07T17:10:29.609Z,45.03
2019-06-07T17:12:59.960Z,45.39
2019-06-07T17:15:30.366Z,45.91
2019-06-07T17:18:00.710Z,45.87
2019-06-07T17:20:31.168Z,45.30
2019-06-07T17:23:01.544Z,45.11
2019-06-07T17:25:31.895Z,45.14
2019-06-07T17:28:02.250Z,45.55
2019-06-07T17:30:32.578Z,45.59
2019-06-07T17:33:02.954Z,45.32
2019-06-07T17:35:33.296Z,45.32
2019-06-07T17:38:03.789Z,45.05
2019-06-07T17:40:34.145Z,45.18
2019-06-07T17:43:04.508Z,45.45
2019-06-07T17:45:34.911Z,45.77
2019-06-07T17:48:05.370Z,46.10
2019-06-07T17:50:35.787Z,46.31
2019-06-07T17:53:06.158Z,46.53
2019-06-07T17:55:36.598Z,46.37
2019-06-07T17:58:06.989Z,46.48
2019-06-07T18:00:51.227Z,46.93
2019-06-07T18:03:21.791Z,47.01
2019-06-07T18:05:53.784Z,47.28
2019-06-07T18:08:25.436Z,47.40
2019-06-07T18:10:55.838Z,47.89
2019-06-07T18:13:26.290Z,48.37
2019-06-07T18:15:59.441Z,48.81
2019-06-07T18:18:29.182Z,50.47
2019-06-07T18:20:59.753Z,51.24
2019-06-07T18:23:30.133Z,52.36
2019-06-07T18:26:00.500Z,52.32
2019-06-07T18:28:30.835Z,52.89
2019-06-07T18:31:01.177Z,53.19
2019-06-07T18:33:31.653Z,53.55
2019-06-07T18:36:02.137Z,54.03
2019-06-07T18:38:32.690Z,54.12
2019-06-07T18:41:03.084Z,54.21
2019-06-07T18:43:34.450Z,54.50
2019-06-07T18:46:04.849Z,54.81
2019-06-07T18:48:35.231Z,55.13
2019-06-07T18:51:05.833Z,55.48
2019-06-07T18:53:36.318Z,56.19
2019-06-07T18:56:06.701Z,56.89
2019-06-07T18:58:37.042Z,56.74
2019-06-07T19:01:07.443Z,56.77
2019-06-07T19:03:37.867Z,56.60
2019-06-07T19:06:08.857Z,57.33
2019-06-07T19:08:39.614Z,56.92
2019-06-07T19:11:10.008Z,57.25
2019-06-07T19:13:40.372Z,58.42
2019-06-07T19:16:10.762Z,58.78
2019-06-07T19:18:41.199Z,58.81
2019-06-07T19:21:11.597Z,58.40
2019-06-07T19:23:42.039Z,58.65
2019-06-07T19:26:12.582Z,59.07
2019-06-07T19:28:43.033Z,58.70
2019-06-07T19:31:13.389Z,59.35
2019-06-07T19:33:48.981Z,58.97
2019-06-07T19:36:16.021Z,59.91
2019-06-07T19:38:46.424Z,59.29
2019-06-07T19:41:19.598Z,59.31
2019-06-07T19:43:48.879Z,60.57
2019-06-07T19:46:19.319Z,60.64
2019-06-07T19:48:49.752Z,60.81
2019-06-07T19:51:20.501Z,60.61
2019-06-07T19:53:50.986Z,60.39
2019-06-07T19:56:21.329Z,60.01
2019-06-07T19:58:51.773Z,59.84
2019-06-07T20:01:22.160Z,59.85
2019-06-07T20:03:53.735Z,60.40
2019-06-07T20:06:24.148Z,60.19
2019-06-07T20:08:54.518Z,60.23
2019-06-07T20:11:24.884Z,60.46
2019-06-07T20:13:56.260Z,61.09
2019-06-07T20:16:26.809Z,61.14
2019-06-07T20:18:58.134Z,61.32
2019-06-07T20:21:28.677Z,61.76
2019-06-07T20:24:01.650Z,61.66
2019-06-07T20:26:31.319Z,61.50
2019-06-07T20:29:01.950Z,62.20
2019-06-07T20:31:32.330Z,61.74
2019-06-07T20:34:05.778Z,61.27
2019-06-07T20:36:37.571Z,61.28
2019-06-07T20:39:08.499Z,61.13
2019-06-07T20:41:39.371Z,61.48
2019-06-07T20:44:10.814Z,61.52
2019-06-07T20:46:41.315Z,61.70
2019-06-07T20:49:47.877Z,61.81
2019-06-07T20:52:54.316Z,62.77
2019-06-07T20:56:00.566Z,62.78
2019-06-07T20:59:07.017Z,63.24
2019-06-07T21:02:13.638Z,64.80
2019-06-07T21:05:20.222Z,65.32
2019-06-07T21:07:50.837Z,65.53
2019-06-07T21:10:21.276Z,65.91
2019-06-07T21:12:51.807Z,66.04
2019-06-07T21:15:22.327Z,66.46
2019-06-07T21:17:52.857Z,66.62
2019-06-07T21:20:23.364Z,66.44
2019-06-07T21:22:53.732Z,66.25
2019-06-07T21:25:24.222Z,65.86
2019-06-07T21:27:54.695Z,66.03
2019-06-07T21:30:25.034Z,67.14
2019-06-07T21:32:55.498Z,68.57
2019-06-07T21:35:25.884Z,68.99
2019-06-07T21:37:56.313Z,68.93
2019-06-07T21:40:26.966Z,69.48
2019-06-07T21:42:57.352Z,69.76
2019-06-07T21:45:27.792Z,69.19
2019-06-07T21:47:58.780Z,69.60
2019-06-07T21:50:29.601Z,69.38
2019-06-07T21:52:59.958Z,70.58
2019-06-07T21:55:30.501Z,71.08
2019-06-07T21:58:00.944Z,71.03
2019-06-07T22:01:17.366Z,71.51
2019-06-07T22:03:48.253Z,71.27
2019-06-07T22:06:18.941Z,71.26
2019-06-07T22:08:49.742Z,72.81
2019-06-07T22:11:20.088Z,73.14
2019-06-07T22:13:50.512Z,73.32
2019-06-07T22:16:28.464Z,73.66
2019-06-07T22:18:52.969Z,73.61
2019-06-07T22:21:23.328Z,73.94
2019-06-07T22:23:53.752Z,74.07
2019-06-07T22:26:24.124Z,74.34
2019-06-07T22:28:54.512Z,74.48
2019-06-07T22:31:24.939Z,74.45
2019-06-07T22:33:55.358Z,74.87
2019-06-07T22:36:25.735Z,74.80
2019-06-07T22:38:56.213Z,74.67
2019-06-07T22:41:26.746Z,74.53
2019-06-07T22:43:57.130Z,74.42
2019-06-07T22:46:36.969Z,74.27
2019-06-07T22:48:59.756Z,74.21
2019-06-07T22:51:30.118Z,75.00
2019-06-07T22:54:00.519Z,74.96
2019-06-07T22:56:45.009Z,76.18
2019-06-07T22:59:18.724Z,76.95
2019-06-07T23:01:47.438Z,77.07
2019-06-07T23:04:19.325Z,76.90
2019-06-07T23:06:49.784Z,76.85
2019-06-07T23:09:20.135Z,76.98
2019-06-07T23:11:50.572Z,77.18
2019-06-07T23:14:20.942Z,77.49
2019-06-07T23:16:55.486Z,78.20
2019-06-07T23:19:23.420Z,78.56
2019-06-07T23:21:53.802Z,78.54
2019-06-07T23:24:24.288Z,78.62
2019-06-07T23:26:54.698Z,78.93
2019-06-07T23:29:25.539Z,80.25
2019-06-07T23:31:55.932Z,80.25
2019-06-07T23:34:26.345Z,80.31
2019-06-07T23:36:56.746Z,80.00
2019-06-07T23:39:27.167Z,80.21
2019-06-07T23:41:57.564Z,80.55
2019-06-07T23:44:27.980Z,81.06
2019-06-07T23:47:10.680Z,81.36
2019-06-07T23:49:30.476Z,82.17
2019-06-07T23:52:01.240Z,82.17
2019-06-07T23:54:31.655Z,82.35
2019-06-07T23:57:02.054Z,82.14
2019-06-07T23:59:32.518Z,82.14
